Time;durP1;ratioP1;P1;durP2;ratioP2;P2;SDS_P1;SDS_P2;PMS_P1;PMS_P2;Temp;Humidity;BMP_temperature;BMP_pressure;BME280_temperature;BME280_humidity;BME280_pressure;Samples;Min_cycle;Max_cycle;Signal;HPM_P1;HPM_P2
2023/01/28 00:02:08;;;;;;;;;23.00;16.75;;;;;5.32;66.85;102035.72;4997175;28;45614;-63
2023/01/28 00:04:34;;;;;;;;;26.00;21.00;;;;;5.35;66.11;102035.41;4994958;28;45338;-63
2023/01/28 00:06:59;;;;;;;;;24.25;20.75;;;;;5.34;66.95;102034.53;5004199;28;46490;-61
2023/01/28 00:09:25;;;;;;;;;25.75;23.50;;;;;5.32;66.61;102019.38;5027502;28;45991;-63
2023/01/28 00:11:50;;;;;;;;;31.75;28.50;;;;;5.34;66.75;102022.81;5016940;28;45630;-63
2023/01/28 00:14:16;;;;;;;;;28.25;23.75;;;;;5.37;66.74;102030.66;5016142;28;45258;-61
2023/01/28 00:16:41;;;;;;;;;34.00;31.25;;;;;5.31;66.80;102015.78;5031549;28;45576;-63
2023/01/28 00:19:07;;;;;;;;;31.75;25.25;;;;;5.01;66.20;101969.56;5048638;28;45383;-63
2023/01/28 00:21:33;;;;;;;;;26.25;20.50;;;;;5.36;65.94;102037.13;5031485;28;45564;-61
2023/01/28 00:23:58;;;;;;;;;24.25;21.50;;;;;5.28;66.61;102021.50;5031671;28;45544;-62
2023/01/28 00:26:24;;;;;;;;;29.50;26.75;;;;;5.32;66.22;102030.28;5031055;28;45455;-66
2023/01/28 00:28:50;;;;;;;;;17.25;12.75;;;;;5.25;66.39;102028.13;5048260;28;45318;-63
2023/01/28 00:31:22;;;;;;;;;30.50;21.00;;;;;5.27;65.81;102030.69;5031761;28;45384;-62
2023/01/28 00:33:48;;;;;;;;;20.40;17.60;;;;;5.27;66.04;102028.84;5015821;28;45433;-63
2023/01/28 00:36:14;;;;;;;;;32.20;27.60;;;;;5.33;65.91;102046.44;5031084;28;45437;-63
2023/01/28 00:38:41;;;;;;;;;31.00;26.00;;;;;5.35;66.12;102040.84;5031304;28;45375;-63
2023/01/28 00:41:16;;;;;;;;;10.00;10.00;;;;;5.25;66.26;102033.56;5016450;28;45406;-63
2023/01/28 00:43:43;;;;;;;;;31.20;27.80;;;;;5.09;65.82;101992.47;5015647;28;45449;-63
2023/01/28 00:46:09;;;;;;;;;29.60;24.60;;;;;5.36;65.94;102029.84;5030599;28;45444;-63
2023/01/28 00:48:35;;;;;;;;;28.00;23.75;;;;;5.14;66.38;102006.50;5015886;28;45344;-63
2023/01/28 00:51:01;;;;;;;;;28.80;21.40;;;;;5.20;65.78;102013.22;5048579;28;46010;-63
2023/01/28 00:53:27;;;;;;;;;29.50;22.75;;;;;5.11;65.61;102004.91;5015744;28;45412;-62
2023/01/28 00:55:53;;;;;;;;;22.25;21.50;;;;;5.28;65.67;102021.50;5015539;28;45425;-63
2023/01/28 00:58:19;;;;;;;;;29.75;21.25;;;;;5.29;65.99;102024.09;5016275;28;45456;-63
2023/01/28 01:00:44;;;;;;;;;24.00;21.60;;;;;5.28;65.10;102025.09;5015845;28;45397;-63
2023/01/28 01:03:10;;;;;;;;;24.25;21.00;;;;;5.28;65.36;102032.41;5014429;28;48176;-63
2023/01/28 01:05:35;;;;;;;;;33.25;24.50;;;;;5.23;65.11;102019.22;5015400;28;45372;-63
2023/01/28 01:08:01;;;;;;;;;24.50;20.00;;;;;5.27;65.43;102028.84;5031051;28;45335;-63
2023/01/28 01:10:26;;;;;;;;;27.00;21.50;;;;;5.23;65.20;102032.84;5031454;28;45218;-63
2023/01/28 01:12:52;;;;;;;;;20.75;19.00;;;;;5.06;65.37;102009.09;5030513;28;47346;-63
2023/01/28 01:15:17;;;;;;;;;21.00;20.50;;;;;5.03;65.53;102007.50;5030909;28;45349;-63
2023/01/28 01:17:44;;;;;;;;;27.75;21.25;;;;;5.26;65.86;102046.19;5015348;28;45317;-63
2023/01/28 01:20:22;;;;;;;;;23.80;23.00;;;;;4.93;65.27;102004.78;5010168;28;45453;-62
2023/01/28 01:22:47;;;;;;;;;34.80;21.60;;;;;5.05;65.92;102020.97;5015181;28;45652;-62
2023/01/28 01:25:14;;;;;;;;;31.00;25.00;;;;;5.19;65.29;102060.50;5030838;28;45467;-63
2023/01/28 01:27:39;;;;;;;;;24.80;19.80;;;;;5.12;65.17;102046.63;5030844;28;45421;-62
2023/01/28 01:30:07;;;;;;;;;30.75;20.75;;;;;5.11;65.16;102050.31;5013933;28;45346;-62
2023/01/28 01:32:36;;;;;;;;;29.60;23.60;;;;;5.10;65.48;102056.78;5030179;28;45348;-63
2023/01/28 01:35:02;;;;;;;;;25.40;22.20;;;;;5.06;65.54;102041.75;5013257;28;45420;-63
2023/01/28 01:37:28;;;;;;;;;26.40;23.20;;;;;5.12;65.48;102062.94;5030302;28;45497;-62
2023/01/28 01:39:53;;;;;;;;;32.00;22.00;;;;;5.16;65.28;102050.75;5013772;28;45482;-62
2023/01/28 01:42:19;;;;;;;;;23.50;20.75;;;;;5.13;65.28;102060.06;5013332;28;46544;-62
2023/01/28 01:45:04;;;;;;;;;20.75;17.00;;;;;5.14;65.42;102059.06;5014847;28;45416;-62
2023/01/28 01:47:48;;;;;;;;;29.60;23.00;;;;;5.12;64.92;102057.50;5015224;28;45408;-62
2023/01/28 01:50:38;;;;;;;;;24.20;20.00;;;;;5.13;65.01;102056.50;5013615;28;45408;-61
2023/01/28 01:53:08;;;;;;;;;25.20;21.20;;;;;4.53;65.48;101963.13;5008143;28;46730;-62
2023/01/28 01:55:34;;;;;;;;;15.00;12.20;;;;;5.12;65.08;102050.19;5014906;28;45384;-62
2023/01/28 01:58:03;;;;;;;;;15.50;14.75;;;;;5.11;65.17;102042.16;5013783;28;45413;-64
2023/01/28 02:00:29;;;;;;;;;24.20;17.80;;;;;5.17;64.64;102048.91;5030390;28;45278;-62
2023/01/28 02:02:55;;;;;;;;;26.00;20.25;;;;;5.16;65.32;102048.03;5014618;28;45436;-62
2023/01/28 02:05:21;;;;;;;;;23.80;17.20;;;;;5.19;64.77;102052.34;5029552;28;45404;-62
2023/01/28 02:07:48;;;;;;;;;26.25;19.00;;;;;5.14;65.49;102059.06;5013136;28;45320;-62
2023/01/28 02:10:13;;;;;;;;;22.20;14.40;;;;;5.15;64.65;102052.63;5014801;28;45349;-62
2023/01/28 02:12:41;;;;;;;;;23.75;18.25;;;;;5.04;65.03;102044.59;5029780;28;46623;-62
2023/01/28 02:15:13;;;;;;;;;18.60;18.00;;;;;5.04;65.07;102035.56;5013201;28;45390;-62
2023/01/28 02:17:38;;;;;;;;;24.40;16.40;;;;;5.11;65.34;102048.47;5012861;28;45479;-61
2023/01/28 02:20:08;;;;;;;;;27.75;20.50;;;;;5.13;64.74;102059.22;5014852;28;45445;-62
2023/01/28 02:23:11;;;;;;;;;21.20;13.20;;;;;5.12;65.59;102065.69;5013779;28;45450;-62
2023/01/28 02:25:55;;;;;;;;;30.00;24.00;;;;;5.07;64.90;102062.50;5014186;28;45330;-61
2023/01/28 02:28:51;;;;;;;;;27.00;20.00;;;;;4.81;64.75;102024.97;5014255;28;45370;-62
2023/01/28 02:31:31;;;;;;;;;17.60;13.80;;;;;4.97;64.90;102057.91;4999770;28;45328;-62
2023/01/28 02:34:15;;;;;;;;;22.20;19.40;;;;;4.94;65.48;102062.78;5014368;28;45314;-63
2023/01/28 02:36:45;;;;;;;;;22.80;20.00;;;;;4.85;65.51;102042.72;5013911;28;45422;-62
2023/01/28 02:39:32;;;;;;;;;23.60;18.20;;;;;4.94;65.08;102060.06;4997235;28;45330;-62
2023/01/28 02:42:03;;;;;;;;;38.20;22.20;;;;;4.91;65.36;102054.91;5014533;28;45380;-62
2023/01/28 02:44:29;;;;;;;;;20.20;17.40;;;;;4.98;65.99;102061.50;4980331;28;46711;-62
2023/01/28 02:49:52;;;;;;;;;23.00;16.20;;;;;4.93;65.88;102059.22;5017695;28;45376;-62
2023/01/28 02:55:32;;;;;;;;;34.60;25.60;;;;;4.98;64.87;102062.38;5017935;28;45903;-63
2023/01/28 02:58:06;;;;;;;;;27.25;23.25;;;;;4.95;64.43;102057.19;5017607;28;45258;-63
2023/01/28 03:00:55;;;;;;;;;31.60;24.40;;;;;4.93;65.65;102059.22;5033107;28;45369;-62
2023/01/28 03:03:26;;;;;;;;;27.00;20.80;;;;;4.96;65.37;102055.34;5017982;28;45262;-63
2023/01/28 03:06:05;;;;;;;;;19.60;19.60;;;;;4.94;65.18;102052.78;4987064;28;45743;-62
2023/01/28 03:36:55;;;;;;;;;31.00;28.00;;;;;5.00;64.83;102076.69;5024040;28;45414;-62
2023/01/28 03:39:27;;;;;;;;;22.25;20.50;;;;;4.94;65.09;102079.97;4997157;28;46599;-61
2023/01/28 03:41:56;;;;;;;;;25.80;21.80;;;;;4.93;64.84;102085.56;4997124;28;45548;-62
2023/01/28 03:47:07;;;;;;;;;28.40;23.00;;;;;4.88;65.12;102089.59;5009625;28;45378;-63
2023/01/28 03:49:33;;;;;;;;;25.40;19.80;;;;;4.90;64.91;102089.41;4997198;28;45933;-62
2023/01/28 03:51:59;;;;;;;;;31.00;21.75;;;;;4.88;65.50;102086.84;5028875;28;45333;-62
2023/01/28 03:54:24;;;;;;;;;24.00;20.75;;;;;4.87;64.74;102090.56;4997146;28;45309;-62
2023/01/28 03:56:50;;;;;;;;;24.00;17.25;;;;;4.87;64.75;102089.72;4996993;28;45232;-62
2023/01/28 03:59:15;;;;;;;;;29.75;22.25;;;;;4.87;64.53;102097.88;4996790;28;46591;-62
2023/01/28 04:01:41;;;;;;;;;27.50;22.50;;;;;4.80;65.22;102083.13;4979392;28;45295;-62
2023/01/28 04:04:06;;;;;;;;;24.75;22.50;;;;;4.72;64.52;102081.97;5012057;28;45310;-62
2023/01/28 04:06:32;;;;;;;;;22.25;18.75;;;;;4.72;64.89;102089.25;4999423;28;45401;-62
2023/01/28 04:09:00;;;;;;;;;22.00;15.25;;;;;4.73;65.61;102083.69;5016440;28;46146;-62
2023/01/28 04:11:26;;;;;;;;;34.20;23.40;;;;;4.88;65.15;102103.19;5031857;28;46251;-62
2023/01/28 04:13:51;;;;;;;;;26.50;20.75;;;;;4.89;64.83;102114.91;5015318;28;45384;-62
2023/01/28 04:16:17;;;;;;;;;33.25;24.00;;;;;4.43;64.76;102039.22;5016571;28;45551;-62
2023/01/28 04:18:43;;;;;;;;;27.75;25.75;;;;;4.70;64.59;102100.25;5016321;28;46037;-62
2023/01/28 04:21:09;;;;;;;;;32.60;23.60;;;;;4.71;64.45;102101.13;5016471;28;45429;-62
2023/01/28 04:23:34;;;;;;;;;27.25;18.75;;;;;4.80;64.76;102105.72;5016197;28;45423;-61
2023/01/28 04:26:00;;;;;;;;;30.00;23.75;;;;;4.81;64.87;102109.31;5016818;28;45591;-62
2023/01/28 04:28:26;;;;;;;;;23.50;20.50;;;;;4.77;64.55;102113.31;5015638;28;47296;-61
2023/01/28 04:30:51;;;;;;;;;24.00;22.50;;;;;4.75;64.57;102111.59;5031535;28;45295;-61
2023/01/28 04:33:17;;;;;;;;;27.25;20.75;;;;;4.82;65.25;102119.19;5015969;28;45462;-61
2023/01/28 04:35:43;;;;;;;;;22.75;21.25;;;;;4.81;64.98;102112.88;5016711;28;45425;-61
2023/01/28 04:38:08;;;;;;;;;19.25;15.00;;;;;4.86;65.17;102117.94;5016159;28;45518;-62
2023/01/28 04:40:34;;;;;;;;;31.75;23.25;;;;;4.83;63.96;102105.47;5015865;28;45378;-63
2023/01/28 04:42:59;;;;;;;;;28.75;21.75;;;;;4.37;64.45;102038.94;5016184;28;45424;-62
2023/01/28 04:45:25;;;;;;;;;23.75;23.25;;;;;4.84;64.37;102119.91;5031390;28;45734;-62
2023/01/28 04:47:50;;;;;;;;;33.75;22.25;;;;;4.54;64.61;102070.03;5015932;28;45552;-62
2023/01/28 04:50:16;;;;;;;;;22.75;21.25;;;;;4.85;64.28;102118.91;5016166;28;45349;-62
2023/01/28 04:52:41;;;;;;;;;30.25;23.50;;;;;4.88;63.95;102132.25;5016031;28;45306;-62
2023/01/28 04:55:08;;;;;;;;;24.75;21.00;;;;;4.87;64.67;102130.53;5031494;28;45502;-62
2023/01/28 04:57:33;;;;;;;;;29.60;24.60;;;;;4.87;64.30;102135.97;5015438;28;46407;-62
2023/01/28 04:59:59;;;;;;;;;23.00;21.00;;;;;4.81;64.09;102133.81;5016222;28;45302;-62
2023/01/28 05:02:24;;;;;;;;;34.25;27.00;;;;;4.75;64.49;102130.63;5031075;28;45421;-62
2023/01/28 05:04:50;;;;;;;;;24.25;21.00;;;;;4.63;64.88;102104.53;5015937;28;45547;-62
2023/01/28 05:07:15;;;;;;;;;21.00;18.25;;;;;4.85;64.12;102135.22;5030649;28;46442;-62
2023/01/28 05:09:41;;;;;;;;;31.00;23.75;;;;;4.82;64.16;102139.09;5014278;28;45243;-62
2023/01/28 05:12:06;;;;;;;;;19.00;18.50;;;;;4.83;64.50;102131.78;5047677;28;45426;-62
2023/01/28 05:14:32;;;;;;;;;26.50;19.25;;;;;4.84;63.83;102128.94;5015704;28;45325;-62
2023/01/28 05:16:57;;;;;;;;;28.00;22.75;;;;;4.89;63.87;102139.41;5030926;28;46152;-62
2023/01/28 05:19:23;;;;;;;;;32.00;27.25;;;;;4.72;64.68;102108.28;4990928;28;45448;-62
2023/01/28 05:21:48;;;;;;;;;31.00;20.50;;;;;4.90;63.94;102143.00;5002161;28;45336;-62
2023/01/28 05:24:14;;;;;;;;;29.75;22.00;;;;;4.85;64.18;102130.66;4997659;28;45769;-63
2023/01/28 05:26:40;;;;;;;;;26.80;20.00;;;;;4.93;64.22;102132.69;5015310;28;46279;-62
2023/01/28 05:29:06;;;;;;;;;30.25;28.00;;;;;4.94;63.83;102125.38;5015063;28;45777;-62
2023/01/28 05:31:31;;;;;;;;;31.25;26.25;;;;;4.95;63.59;102127.94;5031079;28;45329;-63
2023/01/28 05:33:57;;;;;;;;;28.00;22.50;;;;;4.94;63.97;102128.09;5015415;28;45364;-61
2023/01/28 05:36:22;;;;;;;;;27.50;24.00;;;;;4.99;63.55;102143.00;5022227;28;45477;-63
2023/01/28 05:38:48;;;;;;;;;26.75;21.75;;;;;4.95;63.29;102151.56;5033229;28;45621;-62
2023/01/28 05:41:13;;;;;;;;;32.25;27.75;;;;;4.95;63.54;102146.13;5033716;28;45337;-63
2023/01/28 05:43:39;;;;;;;;;28.25;22.00;;;;;4.98;63.57;102148.59;5033935;28;45355;-61
2023/01/28 05:46:04;;;;;;;;;34.00;27.25;;;;;4.97;64.68;102144.16;5018427;28;46054;-61
2023/01/28 05:48:30;;;;;;;;;34.25;27.00;;;;;4.57;63.14;102092.38;5029113;28;45392;-61
2023/01/28 05:50:55;;;;;;;;;33.50;24.00;;;;;4.83;63.40;102154.44;5013417;28;45859;-60
2023/01/28 05:53:21;;;;;;;;;29.50;23.25;;;;;4.76;63.81;102139.66;5029025;28;46017;-62
2023/01/28 05:55:50;;;;;;;;;34.75;23.25;;;;;4.67;64.58;102125.03;5028769;28;45444;-62
2023/01/28 05:58:16;;;;;;;;;42.60;29.00;;;;;4.79;64.48;102152.97;5010698;28;45795;-61
2023/01/28 06:00:42;;;;;;;;;35.25;26.25;;;;;4.80;64.08;102153.84;5028667;28;45698;-61
2023/01/28 06:03:07;;;;;;;;;34.75;26.50;;;;;4.82;63.98;102160.00;5028777;28;45651;-62
2023/01/28 06:05:33;;;;;;;;;32.50;27.25;;;;;4.85;63.85;102151.53;5013095;28;45627;-62
2023/01/28 06:07:59;;;;;;;;;37.25;26.75;;;;;4.84;63.79;102147.09;5012052;28;45539;-62
2023/01/28 06:10:24;;;;;;;;;42.20;28.60;;;;;4.85;64.24;102144.25;5010695;28;45816;-61
2023/01/28 06:12:50;;;;;;;;;28.50;20.50;;;;;4.81;64.37;102144.69;5029161;28;45271;-62
2023/01/28 06:15:15;;;;;;;;;37.50;27.25;;;;;4.77;63.76;102148.66;5013171;28;46344;-61
2023/01/28 06:17:41;;;;;;;;;27.00;21.75;;;;;4.78;64.92;102150.38;5013328;28;45812;-62
2023/01/28 06:20:07;;;;;;;;;38.50;24.75;;;;;4.82;63.86;102158.16;5013544;28;45789;-61
2023/01/28 06:22:33;;;;;;;;;24.80;21.20;;;;;4.64;64.76;102128.00;4999777;28;45616;-65
2023/01/28 06:24:59;;;;;;;;;27.50;20.25;;;;;4.79;64.89;102169.31;4995591;28;45447;-63
2023/01/28 06:27:24;;;;;;;;;31.00;23.50;;;;;4.75;64.02;102176.88;5016713;28;45416;-62
2023/01/28 06:29:50;;;;;;;;;31.75;23.25;;;;;4.73;64.21;102173.44;5032268;28;45364;-62
2023/01/28 06:32:15;;;;;;;;;31.75;22.00;;;;;4.71;64.71;102172.69;5016583;28;45418;-60
2023/01/28 06:34:41;;;;;;;;;29.75;24.50;;;;;4.71;63.82;102178.13;5015378;28;45446;-61
2023/01/28 06:37:07;;;;;;;;;29.00;22.00;;;;;4.64;64.21;102168.81;5016527;28;45389;-61
2023/01/28 06:39:32;;;;;;;;;29.00;20.50;;;;;4.64;64.36;102163.38;5015304;28;45358;-61
2023/01/28 06:41:58;;;;;;;;;41.50;29.50;;;;;4.52;63.90;102145.44;5007854;28;45404;-61
2023/01/28 06:44:24;;;;;;;;;25.75;21.25;;;;;4.71;64.83;102191.75;4994785;28;46768;-61
2023/01/28 06:46:49;;;;;;;;;27.75;24.00;;;;;4.66;65.06;102179.56;5024082;28;45371;-61
2023/01/28 06:49:15;;;;;;;;;31.75;27.50;;;;;4.72;64.21;102195.34;5015907;28;45430;-61
2023/01/28 06:51:40;;;;;;;;;31.00;24.50;;;;;4.74;64.81;102198.78;5016835;28;45307;-61
2023/01/28 06:54:06;;;;;;;;;35.75;28.00;;;;;4.70;64.67;102189.19;5016120;28;46091;-60
2023/01/28 06:56:31;;;;;;;;;30.25;24.75;;;;;4.75;64.89;102200.47;5004866;28;45446;-61
2023/01/28 06:58:57;;;;;;;;;27.00;23.25;;;;;4.78;63.55;102200.22;5023887;28;45471;-60
2023/01/28 07:01:23;;;;;;;;;27.25;23.00;;;;;4.70;63.69;102198.19;5015033;28;45547;-61
2023/01/28 07:03:48;;;;;;;;;31.00;26.75;;;;;4.65;64.14;102203.19;5014652;28;45736;-61
2023/01/28 07:06:14;;;;;;;;;31.25;25.50;;;;;4.60;63.92;102200.03;5031065;28;45544;-61
2023/01/28 07:08:40;;;;;;;;;30.50;21.50;;;;;4.58;64.01;102207.44;5016025;28;45448;-60
2023/01/28 07:11:06;;;;;;;;;30.20;23.00;;;;;4.53;64.43;102212.44;5015208;28;45476;-60
2023/01/28 07:13:31;;;;;;;;;26.75;25.00;;;;;4.53;64.20;102213.28;5015793;28;45879;-60
2023/01/28 07:15:57;;;;;;;;;34.50;23.75;;;;;4.58;64.37;102210.16;5016044;28;45394;-60
2023/01/28 07:18:23;;;;;;;;;30.50;25.00;;;;;4.60;63.76;102208.19;5009907;28;45447;-59
2023/01/28 07:20:48;;;;;;;;;27.25;25.25;;;;;4.59;63.51;102214.63;4996104;28;45201;-60
2023/01/28 07:23:13;;;;;;;;;37.25;29.75;;;;;4.62;63.53;102214.34;5029082;28;45503;-60
2023/01/28 07:25:39;;;;;;;;;25.50;20.25;;;;;4.54;64.33;102208.72;4997207;28;45234;-58
2023/01/28 07:28:05;;;;;;;;;33.75;23.00;;;;;4.48;64.02;102200.09;5029281;28;45211;-59
2023/01/28 07:30:31;;;;;;;;;39.00;23.00;;;;;4.59;64.42;102220.06;4997070;28;45580;-57
2023/01/28 07:32:57;;;;;;;;;36.25;28.75;;;;;4.64;64.52;102220.50;5028367;28;47223;-55
2023/01/28 07:35:23;;;;;;;;;35.40;27.00;;;;;4.62;64.32;102222.50;4996771;28;45394;-57
2023/01/28 07:37:55;;;;;;;;;32.25;24.50;;;;;4.55;63.61;102219.47;4997178;28;45472;-59
2023/01/28 07:40:20;;;;;;;;;30.00;25.00;;;;;4.55;63.56;102227.63;4995685;28;45688;-59
2023/01/28 07:42:46;;;;;;;;;20.25;20.25;;;;;4.55;64.24;102219.47;5028169;28;45514;-60
2023/01/28 07:45:12;;;;;;;;;31.25;21.50;;;;;4.54;63.80;102219.59;4996536;28;45429;-53
2023/01/28 07:47:38;;;;;;;;;25.80;23.20;;;;;4.54;63.11;102225.03;5024676;28;45506;-57
2023/01/28 07:50:04;;;;;;;;;26.75;23.50;;;;;4.55;64.30;102235.78;5015818;28;45584;-60
2023/01/28 07:52:29;;;;;;;;;18.75;15.75;;;;;4.56;64.07;102217.59;4996799;28;47697;-63
2023/01/28 07:54:55;;;;;;;;;20.75;20.75;;;;;4.57;63.25;102232.91;5011076;28;45578;-59
2023/01/28 07:57:23;;;;;;;;;37.75;26.75;;;;;4.20;64.30;102161.78;5011682;28;45425;-61
2023/01/28 07:59:52;;;;;;;;;31.80;25.00;;;;;4.61;63.56;102224.34;5012183;28;45473;-61
2023/01/28 08:02:17;;;;;;;;;34.80;29.20;;;;;4.50;63.35;102207.25;5008942;28;46673;-60
2023/01/28 08:04:43;;;;;;;;;19.00;9.75;;;;;4.63;63.07;102232.38;5010179;28;45481;-59
2023/01/28 08:07:08;;;;;;;;;28.25;27.25;;;;;4.55;63.62;102238.50;5010353;28;45346;-60
2023/01/28 08:09:34;;;;;;;;;30.75;24.50;;;;;4.59;63.86;102233.66;5011994;28;45496;-60
2023/01/28 08:12:02;;;;;;;;;39.25;27.50;;;;;4.67;63.38;102228.38;5011489;28;45475;-60
2023/01/28 08:14:28;;;;;;;;;35.00;28.40;;;;;4.72;63.59;102226.13;5010736;28;45785;-60
2023/01/28 08:16:54;;;;;;;;;32.50;27.50;;;;;4.74;63.30;102242.28;5011336;28;45670;-61
2023/01/28 08:19:20;;;;;;;;;36.25;24.00;;;;;4.64;62.94;102236.81;5012020;28;45371;-60
2023/01/28 08:21:49;;;;;;;;;23.00;19.40;;;;;4.23;63.55;102187.81;5009968;28;48301;-60
2023/01/28 08:24:16;;;;;;;;;26.20;20.80;;;;;4.65;63.70;102254.88;5011739;28;45859;-60
2023/01/28 08:26:42;;;;;;;;;31.60;24.60;;;;;4.67;62.77;102244.72;5010697;28;45712;-61
2023/01/28 08:29:07;;;;;;;;;32.80;24.20;;;;;4.79;63.71;102247.34;5011860;28;45514;-61
2023/01/28 08:31:33;;;;;;;;;30.25;25.50;;;;;4.74;63.21;102251.31;5011468;28;47249;-61
2023/01/28 08:33:58;;;;;;;;;31.75;24.00;;;;;4.56;62.59;102213.03;5011216;28;45400;-61
2023/01/28 08:36:24;;;;;;;;;21.25;19.25;;;;;4.80;62.52;102252.63;5011284;28;45495;-61
2023/01/28 08:38:53;;;;;;;;;24.75;22.75;;;;;4.85;61.70;102250.38;5010366;28;45662;-61
2023/01/28 08:41:21;;;;;;;;;27.40;22.00;;;;;4.88;61.47;102260.13;4993414;28;48026;-61
2023/01/28 08:43:47;;;;;;;;;25.60;19.40;;;;;4.88;61.33;102262.84;5010988;28;45417;-62
2023/01/28 08:46:12;;;;;;;;;31.25;24.00;;;;;4.90;60.64;102268.16;5010686;28;45393;-58
2023/01/28 08:48:38;;;;;;;;;20.00;17.25;;;;;4.90;60.40;102268.16;5011570;28;45439;-60
2023/01/28 08:51:03;;;;;;;;;24.25;21.50;;;;;4.83;60.64;102256.94;5005477;28;46051;-60
2023/01/28 08:53:29;;;;;;;;;29.25;22.75;;;;;4.96;61.27;102273.88;5004281;28;45446;-59
2023/01/28 08:55:54;;;;;;;;;19.50;17.50;;;;;5.00;60.73;102267.19;5009831;28;45453;-60
2023/01/28 08:58:20;;;;;;;;;31.00;22.00;;;;;5.02;60.47;102272.50;5010938;28;45735;-61
2023/01/28 09:00:46;;;;;;;;;38.00;25.00;;;;;5.02;60.40;102277.94;5025958;28;45315;-59
2023/01/28 09:03:11;;;;;;;;;28.50;25.00;;;;;4.95;60.21;102288.50;5009365;28;45492;-59
2023/01/28 09:05:37;;;;;;;;;28.00;19.25;;;;;4.82;61.15;102282.44;5010868;28;45816;-59
2023/01/28 09:08:10;;;;;;;;;24.75;20.00;;;;;4.82;61.14;102283.31;5010146;28;45526;-59
2023/01/28 09:10:40;;;;;;;;;28.60;21.00;;;;;4.90;60.62;102292.63;5010738;28;45444;-58
2023/01/28 09:13:06;;;;;;;;;14.00;12.20;;;;;4.67;59.85;102258.31;5025292;28;45449;-60
2023/01/28 09:15:32;;;;;;;;;24.00;22.40;;;;;4.88;60.95;102295.50;5009871;28;45738;-60
2023/01/28 09:17:58;;;;;;;;;25.40;23.80;;;;;4.96;60.56;102298.38;5009271;28;45451;-61
2023/01/28 09:20:23;;;;;;;;;16.00;14.50;;;;;4.94;59.54;102300.38;5025548;28;47075;-62
2023/01/28 09:22:49;;;;;;;;;21.00;15.75;;;;;4.86;59.97;102301.06;5025798;28;45410;-61
2023/01/28 09:25:14;;;;;;;;;31.50;24.50;;;;;4.85;60.26;102298.47;5010450;28;45448;-60
2023/01/28 09:27:40;;;;;;;;;32.25;19.50;;;;;4.82;60.42;102305.06;5009588;28;45698;-60
2023/01/28 09:30:06;;;;;;;;;26.75;19.25;;;;;4.73;60.14;102298.56;4992285;28;48307;-60
2023/01/28 09:32:32;;;;;;;;;21.40;16.60;;;;;4.11;61.23;102197.88;5010223;28;45477;-62
2023/01/28 09:34:57;;;;;;;;;25.50;24.00;;;;;4.70;60.46;102282.50;5009053;28;45582;-60
2023/01/28 09:37:23;;;;;;;;;25.50;20.75;;;;;4.68;61.15;102260.03;5009976;28;45899;-61
2023/01/28 09:39:48;;;;;;;;;27.00;20.50;;;;;4.86;60.10;102303.78;5009286;28;46371;-61
2023/01/28 09:42:52;;;;;;;;;22.25;16.75;;;;;4.87;60.88;102310.94;5008618;28;45491;-63
2023/01/28 09:45:40;;;;;;;;;29.00;23.20;;;;;4.81;60.42;102308.75;5010167;28;45383;-62
2023/01/28 09:48:11;;;;;;;;;22.20;20.20;;;;;4.86;59.94;102311.09;5024873;28;45554;-60
2023/01/28 09:50:38;;;;;;;;;33.60;26.40;;;;;4.64;60.99;102285.75;5007671;28;46977;-59
2023/01/28 09:53:07;;;;;;;;;33.20;26.00;;;;;4.86;60.44;102319.25;5008630;28;45480;-60
2023/01/28 09:55:37;;;;;;;;;20.40;19.20;;;;;4.86;60.34;102330.16;5009420;28;45454;-62
2023/01/28 09:58:06;;;;;;;;;25.40;20.40;;;;;4.83;59.72;102311.34;5010327;28;45762;-59
2023/01/28 10:00:41;;;;;;;;;29.40;24.20;;;;;4.85;59.84;102322.94;5024728;28;46773;-63
2023/01/28 10:03:16;;;;;;;;;27.80;20.40;;;;;4.80;59.99;102314.34;5024149;28;45441;-60
2023/01/28 10:06:13;;;;;;;;;30.00;25.60;;;;;4.84;60.25;102318.50;5024524;28;45391;-61
2023/01/28 10:09:16;;;;;;;;;20.40;18.80;;;;;4.83;60.04;102312.22;5007940;28;46076;-64
2023/01/28 10:12:13;;;;;;;;;20.40;19.80;;;;;4.88;60.20;102319.97;5002914;28;45496;-65
2023/01/28 10:14:57;;;;;;;;;23.00;19.80;;;;;4.80;58.92;102314.34;5011944;28;45753;-65
2023/01/28 10:17:30;;;;;;;;;23.80;20.60;;;;;4.75;59.49;102320.19;5007971;28;45371;-62
2023/01/28 10:20:00;;;;;;;;;25.60;21.40;;;;;4.38;59.85;102260.88;4990203;28;45775;-68
2023/01/28 10:22:31;;;;;;;;;27.60;18.00;;;;;4.80;59.77;102320.66;5023216;28;46520;-61
2023/01/28 10:25:00;;;;;;;;;25.00;19.20;;;;;4.91;61.67;102322.41;5007354;28;45381;-60
2023/01/28 10:27:28;;;;;;;;;26.60;20.60;;;;;4.87;60.53;102308.22;5006090;28;45810;-60
2023/01/28 10:29:54;;;;;;;;;29.00;26.20;;;;;4.96;59.45;102322.88;5024023;28;45479;-62
2023/01/28 10:32:30;;;;;;;;;23.25;21.00;;;;;4.95;60.15;102329.31;5012156;28;46861;-63
2023/01/28 10:34:58;;;;;;;;;30.00;23.20;;;;;4.93;60.42;102333.16;5011615;28;45443;-62
2023/01/28 10:37:24;;;;;;;;;27.20;23.40;;;;;4.91;59.84;102337.91;5008518;28;45843;-63
2023/01/28 10:39:53;;;;;;;;;30.40;27.60;;;;;4.90;60.08;102334.31;4998316;28;45696;-63
2023/01/28 10:42:35;;;;;;;;;22.00;20.20;;;;;4.94;58.98;102346.66;5013344;28;45937;-62
2023/01/28 10:45:33;;;;;;;;;26.00;24.00;;;;;4.95;60.39;102340.22;5012110;28;45499;-61
2023/01/28 10:48:15;;;;;;;;;27.40;20.60;;;;;4.91;60.08;102351.50;5027290;28;45761;-61
2023/01/28 10:50:52;;;;;;;;;28.20;22.60;;;;;4.74;60.13;102313.91;5008511;28;45403;-61
2023/01/28 10:53:17;;;;;;;;;29.60;22.60;;;;;4.90;60.77;102349.78;5007957;28;45868;-60
2023/01/28 10:55:51;;;;;;;;;28.50;25.00;;;;;4.64;60.12;102323.84;5008907;28;45747;-62
2023/01/28 10:58:27;;;;;;;;;25.80;21.60;;;;;4.83;60.39;102350.31;5010940;28;45525;-63
2023/01/28 11:00:58;;;;;;;;;27.00;25.80;;;;;4.71;61.18;102327.75;5012164;28;45524;-62
2023/01/28 11:03:27;;;;;;;;;25.00;22.40;;;;;4.77;60.92;102339.97;5011672;28;45505;-61
2023/01/28 11:05:54;;;;;;;;;29.40;24.20;;;;;4.75;60.13;102321.06;5025920;28;45478;-63
2023/01/28 11:08:20;;;;;;;;;32.20;24.40;;;;;4.78;60.55;102332.66;5013530;28;45530;-62
2023/01/28 11:10:46;;;;;;;;;24.00;21.20;;;;;4.84;61.24;102343.00;5016067;28;45556;-63
2023/01/28 11:13:17;;;;;;;;;24.40;23.80;;;;;4.25;59.91;102245.63;5016233;28;45836;-62
2023/01/28 11:15:52;;;;;;;;;27.40;19.00;;;;;4.50;61.14;102305.16;5016914;28;45397;-63
2023/01/28 11:18:26;;;;;;;;;23.80;19.60;;;;;4.55;61.03;102321.94;5032467;28;45901;-62
2023/01/28 11:20:59;;;;;;;;;26.80;21.20;;;;;4.67;61.07;102334.47;5031954;28;45491;-63
2023/01/28 11:23:49;;;;;;;;;26.00;20.20;;;;;4.74;60.91;102343.81;5032329;28;45420;-62
2023/01/28 11:26:18;;;;;;;;;25.20;20.80;;;;;4.74;61.07;102332.94;5017315;28;45532;-61
2023/01/28 11:28:44;;;;;;;;;27.20;27.20;;;;;4.80;62.06;102322.53;5014761;28;45979;-62
2023/01/28 11:31:12;;;;;;;;;24.50;20.00;;;;;4.69;61.20;102296.25;5030173;28;45465;-61
2023/01/28 11:33:48;;;;;;;;;26.40;18.40;;;;;4.86;60.66;102317.38;5015403;28;46751;-62
2023/01/28 11:36:15;;;;;;;;;25.20;21.60;;;;;4.88;60.92;102323.56;5031233;28;45634;-63
2023/01/28 11:38:54;;;;;;;;;30.60;24.60;;;;;4.72;60.59;102299.56;5016756;28;45379;-62
2023/01/28 11:41:32;;;;;;;;;30.20;24.40;;;;;4.87;60.74;102318.25;5015706;28;45483;-61
2023/01/28 11:43:59;;;;;;;;;23.20;17.40;;;;;4.88;60.66;102330.88;5000211;28;45746;-62
2023/01/28 11:46:57;;;;;;;;;24.00;21.20;;;;;4.85;59.96;102310.22;5015398;28;45496;-58
2023/01/28 11:49:43;;;;;;;;;23.80;17.60;;;;;4.72;59.73;102285.09;4979551;28;45618;-61
2023/01/28 11:52:27;;;;;;;;;21.60;17.80;;;;;4.92;59.46;102318.72;5017133;28;45535;-61
2023/01/28 11:55:02;;;;;;;;;28.20;20.60;;;;;4.80;60.44;102281.72;5015734;28;48182;-62
2023/01/28 11:57:35;;;;;;;;;23.20;19.40;;;;;5.08;60.44;102314.63;5017125;28;45411;-60
2023/01/28 12:00:10;;;;;;;;;24.80;22.00;;;;;5.10;60.27;102309.91;5017103;28;45354;-61
2023/01/28 12:03:08;;;;;;;;;23.20;22.40;;;;;5.04;59.03;102305.00;5017254;28;45320;-63